sensor_id;sensor_type;location;lat;lon;timestamp;P1;durP1;ratioP1;P2;durP2;ratioP2
72109;SDS011;59983;52.010;5.420;2022-09-09T00:00:23;4.27;;;3.60;;
72109;SDS011;59983;52.010;5.420;2022-09-09T00:03:06;3.80;;;3.50;;
72109;SDS011;59983;52.010;5.420;2022-09-09T00:05:44;3.58;;;3.28;;
72109;SDS011;59983;52.010;5.420;2022-09-09T00:08:19;7.03;;;3.40;;
72109;SDS011;59983;52.010;5.420;2022-09-09T00:10:51;3.90;;;3.60;;
72109;SDS011;59983;52.010;5.420;2022-09-09T00:13:34;3.93;;;3.70;;
72109;SDS011;59983;52.010;5.420;2022-09-09T00:21:20;4.35;;;3.95;;
72109;SDS011;59983;52.010;5.420;2022-09-09T00:23:56;3.88;;;3.47;;
72109;SDS011;59983;52.010;5.420;2022-09-09T00:28:55;4.35;;;3.92;;
72109;SDS011;59983;52.010;5.420;2022-09-09T00:31:30;3.80;;;3.50;;
72109;SDS011;59983;52.010;5.420;2022-09-09T00:34:00;3.55;;;3.25;;
72109;SDS011;59983;52.010;5.420;2022-09-09T00:36:35;5.00;;;3.70;;
72109;SDS011;59983;52.010;5.420;2022-09-09T00:39:03;4.23;;;3.30;;
72109;SDS011;59983;52.010;5.420;2022-09-09T00:50:03;3.90;;;3.25;;
72109;SDS011;59983;52.010;5.420;2022-09-09T00:52:46;4.03;;;3.73;;
72109;SDS011;59983;52.010;5.420;2022-09-09T00:55:35;5.45;;;4.57;;
72109;SDS011;59983;52.010;5.420;2022-09-09T00:58:05;9.35;;;5.18;;
72109;SDS011;59983;52.010;5.420;2022-09-09T01:00:48;5.13;;;4.63;;
72109;SDS011;59983;52.010;5.420;2022-09-09T01:17:05;6.18;;;4.75;;
72109;SDS011;59983;52.010;5.420;2022-09-09T01:19:39;4.77;;;3.97;;
72109;SDS011;59983;52.010;5.420;2022-09-09T01:22:20;3.85;;;3.63;;
72109;SDS011;59983;52.010;5.420;2022-09-09T01:25:07;4.03;;;3.75;;
72109;SDS011;59983;52.010;5.420;2022-09-09T01:27:36;4.35;;;4.05;;
72109;SDS011;59983;52.010;5.420;2022-09-09T01:30:10;5.43;;;4.85;;
72109;SDS011;59983;52.010;5.420;2022-09-09T01:35:35;4.43;;;4.10;;
72109;SDS011;59983;52.010;5.420;2022-09-09T01:38:07;4.68;;;4.20;;
72109;SDS011;59983;52.010;5.420;2022-09-09T01:40:34;4.88;;;4.18;;
72109;SDS011;59983;52.010;5.420;2022-09-09T01:43:00;4.53;;;4.20;;
72109;SDS011;59983;52.010;5.420;2022-09-09T01:45:27;5.63;;;4.83;;
72109;SDS011;59983;52.010;5.420;2022-09-09T01:47:54;9.75;;;5.90;;
72109;SDS011;59983;52.010;5.420;2022-09-09T01:50:22;7.53;;;4.80;;
72109;SDS011;59983;52.010;5.420;2022-09-09T01:52:50;7.20;;;5.05;;
72109;SDS011;59983;52.010;5.420;2022-09-09T01:55:25;4.40;;;4.10;;
72109;SDS011;59983;52.010;5.420;2022-09-09T02:00:49;4.35;;;3.72;;
72109;SDS011;59983;52.010;5.420;2022-09-09T02:03:29;5.60;;;4.95;;
72109;SDS011;59983;52.010;5.420;2022-09-09T02:11:12;5.43;;;4.77;;
72109;SDS011;59983;52.010;5.420;2022-09-09T02:13:40;4.88;;;4.57;;
72109;SDS011;59983;52.010;5.420;2022-09-09T02:21:53;5.57;;;4.95;;
72109;SDS011;59983;52.010;5.420;2022-09-09T02:24:22;6.00;;;5.50;;
72109;SDS011;59983;52.010;5.420;2022-09-09T02:26:49;5.45;;;4.93;;
72109;SDS011;59983;52.010;5.420;2022-09-09T02:29:20;5.78;;;5.28;;
72109;SDS011;59983;52.010;5.420;2022-09-09T02:31:50;11.73;;;6.07;;
72109;SDS011;59983;52.010;5.420;2022-09-09T02:34:20;5.78;;;5.30;;
72109;SDS011;59983;52.010;5.420;2022-09-09T02:36:50;5.63;;;4.97;;
72109;SDS011;59983;52.010;5.420;2022-09-09T02:39:19;5.60;;;5.30;;
72109;SDS011;59983;52.010;5.420;2022-09-09T02:41:46;5.45;;;5.05;;
72109;SDS011;59983;52.010;5.420;2022-09-09T02:44:14;7.10;;;4.93;;
72109;SDS011;59983;52.010;5.420;2022-09-09T02:46:50;14.65;;;6.07;;
72109;SDS011;59983;52.010;5.420;2022-09-09T02:49:23;6.17;;;5.53;;
72109;SDS011;59983;52.010;5.420;2022-09-09T02:52:18;5.93;;;5.43;;
72109;SDS011;59983;52.010;5.420;2022-09-09T02:54:46;6.10;;;5.60;;
72109;SDS011;59983;52.010;5.420;2022-09-09T02:57:22;6.53;;;5.28;;
72109;SDS011;59983;52.010;5.420;2022-09-09T02:59:51;5.55;;;5.22;;
72109;SDS011;59983;52.010;5.420;2022-09-09T03:02:18;6.73;;;6.13;;
72109;SDS011;59983;52.010;5.420;2022-09-09T03:04:45;6.15;;;5.43;;
72109;SDS011;59983;52.010;5.420;2022-09-09T03:07:17;5.78;;;5.35;;
72109;SDS011;59983;52.010;5.420;2022-09-09T03:09:44;5.70;;;5.28;;
72109;SDS011;59983;52.010;5.420;2022-09-09T03:12:11;6.82;;;5.70;;
72109;SDS011;59983;52.010;5.420;2022-09-09T03:14:38;6.07;;;5.53;;
72109;SDS011;59983;52.010;5.420;2022-09-09T03:17:05;5.75;;;5.35;;
72109;SDS011;59983;52.010;5.420;2022-09-09T03:19:32;6.88;;;6.05;;
72109;SDS011;59983;52.010;5.420;2022-09-09T03:22:01;5.90;;;5.50;;
72109;SDS011;59983;52.010;5.420;2022-09-09T03:24:27;5.60;;;5.10;;
72109;SDS011;59983;52.010;5.420;2022-09-09T03:26:54;5.63;;;5.23;;
72109;SDS011;59983;52.010;5.420;2022-09-09T03:29:21;5.38;;;5.05;;
72109;SDS011;59983;52.010;5.420;2022-09-09T03:31:48;6.57;;;5.97;;
72109;SDS011;59983;52.010;5.420;2022-09-09T03:34:14;6.25;;;5.70;;
72109;SDS011;59983;52.010;5.420;2022-09-09T03:36:41;6.93;;;5.35;;
72109;SDS011;59983;52.010;5.420;2022-09-09T03:39:07;6.80;;;6.17;;
72109;SDS011;59983;52.010;5.420;2022-09-09T03:41:34;6.55;;;5.25;;
72109;SDS011;59983;52.010;5.420;2022-09-09T03:44:00;6.53;;;5.30;;
72109;SDS011;59983;52.010;5.420;2022-09-09T03:46:27;6.63;;;5.82;;
72109;SDS011;59983;52.010;5.420;2022-09-09T03:48:53;5.68;;;5.28;;
72109;SDS011;59983;52.010;5.420;2022-09-09T03:51:20;6.97;;;6.30;;
72109;SDS011;59983;52.010;5.420;2022-09-09T03:53:48;6.13;;;5.22;;
72109;SDS011;59983;52.010;5.420;2022-09-09T03:56:14;5.93;;;5.30;;
72109;SDS011;59983;52.010;5.420;2022-09-09T03:58:41;6.43;;;5.80;;
72109;SDS011;59983;52.010;5.420;2022-09-09T04:01:08;6.60;;;5.50;;
72109;SDS011;59983;52.010;5.420;2022-09-09T04:03:39;5.77;;;5.47;;
72109;SDS011;59983;52.010;5.420;2022-09-09T04:06:07;6.22;;;5.60;;
72109;SDS011;59983;52.010;5.420;2022-09-09T04:08:35;6.25;;;5.70;;
72109;SDS011;59983;52.010;5.420;2022-09-09T04:11:02;5.47;;;5.07;;
72109;SDS011;59983;52.010;5.420;2022-09-09T04:13:33;6.57;;;5.97;;
72109;SDS011;59983;52.010;5.420;2022-09-09T04:16:01;7.03;;;6.13;;
72109;SDS011;59983;52.010;5.420;2022-09-09T04:18:30;5.95;;;5.38;;
72109;SDS011;59983;52.010;5.420;2022-09-09T04:20:57;6.05;;;5.55;;
72109;SDS011;59983;52.010;5.420;2022-09-09T04:23:24;6.47;;;5.80;;
72109;SDS011;59983;52.010;5.420;2022-09-09T04:25:53;6.07;;;5.55;;
72109;SDS011;59983;52.010;5.420;2022-09-09T04:28:22;6.37;;;5.80;;
72109;SDS011;59983;52.010;5.420;2022-09-09T04:30:50;6.18;;;5.78;;
72109;SDS011;59983;52.010;5.420;2022-09-09T04:33:17;6.88;;;5.63;;
72109;SDS011;59983;52.010;5.420;2022-09-09T04:35:44;6.10;;;5.03;;
72109;SDS011;59983;52.010;5.420;2022-09-09T04:38:12;5.75;;;5.35;;
72109;SDS011;59983;52.010;5.420;2022-09-09T04:40:38;5.13;;;4.67;;
72109;SDS011;59983;52.010;5.420;2022-09-09T04:43:08;8.32;;;5.32;;
72109;SDS011;59983;52.010;5.420;2022-09-09T04:45:39;9.10;;;4.70;;
72109;SDS011;59983;52.010;5.420;2022-09-09T04:48:07;5.93;;;5.05;;
72109;SDS011;59983;52.010;5.420;2022-09-09T04:50:34;5.90;;;5.40;;
72109;SDS011;59983;52.010;5.420;2022-09-09T04:53:01;5.70;;;4.97;;
72109;SDS011;59983;52.010;5.420;2022-09-09T04:55:28;5.75;;;5.07;;
72109;SDS011;59983;52.010;5.420;2022-09-09T04:57:54;5.43;;;5.00;;
72109;SDS011;59983;52.010;5.420;2022-09-09T05:00:21;9.05;;;5.47;;
72109;SDS011;59983;52.010;5.420;2022-09-09T05:02:47;5.30;;;4.88;;
72109;SDS011;59983;52.010;5.420;2022-09-09T05:05:14;6.60;;;4.50;;
72109;SDS011;59983;52.010;5.420;2022-09-09T05:07:40;6.15;;;4.68;;
72109;SDS011;59983;52.010;5.420;2022-09-09T05:10:07;6.70;;;4.57;;
72109;SDS011;59983;52.010;5.420;2022-09-09T05:12:34;11.00;;;5.22;;
72109;SDS011;59983;52.010;5.420;2022-09-09T05:15:01;4.97;;;4.57;;
72109;SDS011;59983;52.010;5.420;2022-09-09T05:17:27;5.50;;;5.00;;
72109;SDS011;59983;52.010;5.420;2022-09-09T05:19:54;5.35;;;4.88;;
72109;SDS011;59983;52.010;5.420;2022-09-09T05:22:21;5.00;;;4.38;;
72109;SDS011;59983;52.010;5.420;2022-09-09T05:24:49;5.10;;;4.60;;
72109;SDS011;59983;52.010;5.420;2022-09-09T05:27:19;5.15;;;4.72;;
72109;SDS011;59983;52.010;5.420;2022-09-09T05:29:45;5.50;;;4.57;;
72109;SDS011;59983;52.010;5.420;2022-09-09T05:32:12;4.80;;;4.40;;
72109;SDS011;59983;52.010;5.420;2022-09-09T05:34:41;6.90;;;4.65;;
72109;SDS011;59983;52.010;5.420;2022-09-09T05:37:07;5.57;;;4.75;;
72109;SDS011;59983;52.010;5.420;2022-09-09T05:39:34;5.90;;;4.88;;
72109;SDS011;59983;52.010;5.420;2022-09-09T05:42:03;6.47;;;4.77;;
72109;SDS011;59983;52.010;5.420;2022-09-09T05:44:30;7.03;;;4.82;;
72109;SDS011;59983;52.010;5.420;2022-09-09T05:46:57;6.20;;;4.88;;
72109;SDS011;59983;52.010;5.420;2022-09-09T05:49:24;4.20;;;3.88;;
72109;SDS011;59983;52.010;5.420;2022-09-09T05:51:51;5.13;;;4.65;;
72109;SDS011;59983;52.010;5.420;2022-09-09T05:54:17;6.07;;;4.43;;
72109;SDS011;59983;52.010;5.420;2022-09-09T05:56:44;9.77;;;4.60;;
72109;SDS011;59983;52.010;5.420;2022-09-09T05:59:16;10.23;;;4.57;;
72109;SDS011;59983;52.010;5.420;2022-09-09T06:01:43;8.45;;;5.10;;
72109;SDS011;59983;52.010;5.420;2022-09-09T06:04:11;4.95;;;4.53;;
72109;SDS011;59983;52.010;5.420;2022-09-09T06:06:38;8.50;;;4.23;;
72109;SDS011;59983;52.010;5.420;2022-09-09T06:09:06;8.63;;;4.90;;
72109;SDS011;59983;52.010;5.420;2022-09-09T06:11:36;10.40;;;5.80;;
72109;SDS011;59983;52.010;5.420;2022-09-09T06:14:05;5.35;;;4.93;;
72109;SDS011;59983;52.010;5.420;2022-09-09T06:16:32;7.50;;;5.60;;
72109;SDS011;59983;52.010;5.420;2022-09-09T06:19:00;10.13;;;4.97;;
72109;SDS011;59983;52.010;5.420;2022-09-09T06:21:28;4.90;;;4.35;;
72109;SDS011;59983;52.010;5.420;2022-09-09T06:24:04;10.45;;;4.18;;
72109;SDS011;59983;52.010;5.420;2022-09-09T06:26:37;10.23;;;3.78;;
72109;SDS011;59983;52.010;5.420;2022-09-09T06:29:06;6.55;;;3.75;;
72109;SDS011;59983;52.010;5.420;2022-09-09T06:31:34;5.53;;;3.70;;
72109;SDS011;59983;52.010;5.420;2022-09-09T06:34:06;4.10;;;3.55;;
72109;SDS011;59983;52.010;5.420;2022-09-09T06:36:35;8.30;;;4.03;;
72109;SDS011;59983;52.010;5.420;2022-09-09T06:39:03;9.10;;;4.90;;
72109;SDS011;59983;52.010;5.420;2022-09-09T06:41:31;5.28;;;3.70;;
72109;SDS011;59983;52.010;5.420;2022-09-09T06:43:59;5.07;;;3.57;;
72109;SDS011;59983;52.010;5.420;2022-09-09T06:46:26;7.78;;;4.00;;
72109;SDS011;59983;52.010;5.420;2022-09-09T06:48:55;7.63;;;3.63;;
72109;SDS011;59983;52.010;5.420;2022-09-09T06:51:28;5.93;;;3.85;;
72109;SDS011;59983;52.010;5.420;2022-09-09T06:53:57;5.15;;;3.80;;
72109;SDS011;59983;52.010;5.420;2022-09-09T06:56:26;7.53;;;3.63;;
72109;SDS011;59983;52.010;5.420;2022-09-09T06:58:57;5.20;;;4.20;;
72109;SDS011;59983;52.010;5.420;2022-09-09T07:01:26;6.25;;;4.10;;
72109;SDS011;59983;52.010;5.420;2022-09-09T07:03:55;7.57;;;4.32;;
72109;SDS011;59983;52.010;5.420;2022-09-09T07:06:25;9.75;;;3.92;;
72109;SDS011;59983;52.010;5.420;2022-09-09T07:08:54;6.63;;;3.53;;
72109;SDS011;59983;52.010;5.420;2022-09-09T07:11:24;6.80;;;3.47;;
72109;SDS011;59983;52.010;5.420;2022-09-09T07:13:59;9.02;;;3.63;;
72109;SDS011;59983;52.010;5.420;2022-09-09T07:16:26;5.25;;;3.00;;
72109;SDS011;59983;52.010;5.420;2022-09-09T07:18:54;9.02;;;4.00;;
72109;SDS011;59983;52.010;5.420;2022-09-09T07:21:24;5.87;;;3.47;;
72109;SDS011;59983;52.010;5.420;2022-09-09T07:23:55;8.80;;;3.65;;
72109;SDS011;59983;52.010;5.420;2022-09-09T07:26:23;10.63;;;4.00;;
72109;SDS011;59983;52.010;5.420;2022-09-09T07:28:51;6.07;;;3.38;;
72109;SDS011;59983;52.010;5.420;2022-09-09T07:31:19;9.85;;;3.42;;
72109;SDS011;59983;52.010;5.420;2022-09-09T07:34:00;14.10;;;3.80;;
72109;SDS011;59983;52.010;5.420;2022-09-09T07:36:28;4.10;;;2.97;;
72109;SDS011;59983;52.010;5.420;2022-09-09T07:39:03;10.07;;;3.65;;
72109;SDS011;59983;52.010;5.420;2022-09-09T07:41:33;5.05;;;2.97;;
72109;SDS011;59983;52.010;5.420;2022-09-09T07:44:08;7.63;;;4.25;;
72109;SDS011;59983;52.010;5.420;2022-09-09T07:46:37;8.43;;;3.43;;
72109;SDS011;59983;52.010;5.420;2022-09-09T07:49:06;8.18;;;3.70;;
72109;SDS011;59983;52.010;5.420;2022-09-09T07:51:37;6.95;;;3.50;;
72109;SDS011;59983;52.010;5.420;2022-09-09T07:54:06;9.32;;;3.20;;
72109;SDS011;59983;52.010;5.420;2022-09-09T07:56:35;5.20;;;3.45;;
72109;SDS011;59983;52.010;5.420;2022-09-09T07:59:05;3.27;;;2.80;;
72109;SDS011;59983;52.010;5.420;2022-09-09T08:01:33;5.35;;;3.60;;
72109;SDS011;59983;52.010;5.420;2022-09-09T08:04:12;7.53;;;3.00;;
72109;SDS011;59983;52.010;5.420;2022-09-09T08:06:44;10.80;;;3.42;;
72109;SDS011;59983;52.010;5.420;2022-09-09T08:09:13;6.50;;;3.35;;
72109;SDS011;59983;52.010;5.420;2022-09-09T08:11:40;9.43;;;3.50;;
72109;SDS011;59983;52.010;5.420;2022-09-09T08:14:07;4.10;;;3.70;;
72109;SDS011;59983;52.010;5.420;2022-09-09T08:16:36;8.63;;;3.08;;
72109;SDS011;59983;52.010;5.420;2022-09-09T08:19:06;4.70;;;3.05;;
72109;SDS011;59983;52.010;5.420;2022-09-09T08:21:34;6.68;;;3.25;;
72109;SDS011;59983;52.010;5.420;2022-09-09T08:24:02;8.10;;;3.37;;
72109;SDS011;59983;52.010;5.420;2022-09-09T08:26:35;7.95;;;3.22;;
72109;SDS011;59983;52.010;5.420;2022-09-09T08:29:04;10.75;;;3.63;;
72109;SDS011;59983;52.010;5.420;2022-09-09T08:32:06;6.63;;;3.47;;
72109;SDS011;59983;52.010;5.420;2022-09-09T08:34:26;7.05;;;3.63;;
72109;SDS011;59983;52.010;5.420;2022-09-09T08:36:53;4.00;;;3.10;;
72109;SDS011;59983;52.010;5.420;2022-09-09T08:39:20;5.68;;;3.30;;
72109;SDS011;59983;52.010;5.420;2022-09-09T08:50:26;8.17;;;3.53;;
72109;SDS011;59983;52.010;5.420;2022-09-09T08:53:41;8.65;;;3.97;;
72109;SDS011;59983;52.010;5.420;2022-09-09T08:55:48;10.20;;;4.57;;
72109;SDS011;59983;52.010;5.420;2022-09-09T08:58:35;7.07;;;4.18;;
72109;SDS011;59983;52.010;5.420;2022-09-09T09:12:33;7.38;;;3.70;;
72109;SDS011;59983;52.010;5.420;2022-09-09T09:15:09;8.85;;;3.28;;
72109;SDS011;59983;52.010;5.420;2022-09-09T09:17:43;7.33;;;2.80;;
72109;SDS011;59983;52.010;5.420;2022-09-09T09:20:16;5.38;;;3.20;;
72109;SDS011;59983;52.010;5.420;2022-09-09T09:22:50;7.18;;;2.88;;
72109;SDS011;59983;52.010;5.420;2022-09-09T09:25:34;4.68;;;3.33;;
72109;SDS011;59983;52.010;5.420;2022-09-09T09:28:16;6.65;;;2.78;;
72109;SDS011;59983;52.010;5.420;2022-09-09T09:33:22;7.45;;;3.40;;
72109;SDS011;59983;52.010;5.420;2022-09-09T09:35:50;4.35;;;3.63;;
72109;SDS011;59983;52.010;5.420;2022-09-09T09:38:18;7.82;;;3.38;;
72109;SDS011;59983;52.010;5.420;2022-09-09T09:41:09;6.78;;;3.10;;
72109;SDS011;59983;52.010;5.420;2022-09-09T09:43:36;4.83;;;2.93;;
72109;SDS011;59983;52.010;5.420;2022-09-09T09:46:17;10.07;;;2.90;;
72109;SDS011;59983;52.010;5.420;2022-09-09T09:48:58;9.65;;;3.65;;
72109;SDS011;59983;52.010;5.420;2022-09-09T09:51:26;4.82;;;2.85;;
72109;SDS011;59983;52.010;5.420;2022-09-09T09:54:02;9.90;;;2.92;;
72109;SDS011;59983;52.010;5.420;2022-09-09T09:56:35;11.53;;;3.40;;
72109;SDS011;59983;52.010;5.420;2022-09-09T09:59:02;4.03;;;2.97;;
72109;SDS011;59983;52.010;5.420;2022-09-09T10:01:43;8.15;;;3.35;;
72109;SDS011;59983;52.010;5.420;2022-09-09T10:06:44;3.72;;;2.47;;
72109;SDS011;59983;52.010;5.420;2022-09-09T10:09:29;6.30;;;3.00;;
72109;SDS011;59983;52.010;5.420;2022-09-09T10:20:32;5.65;;;3.90;;
72109;SDS011;59983;52.010;5.420;2022-09-09T10:23:46;6.70;;;3.43;;
72109;SDS011;59983;52.010;5.420;2022-09-09T10:34:40;10.95;;;3.90;;
72109;SDS011;59983;52.010;5.420;2022-09-09T10:48:41;12.10;;;3.97;;
72109;SDS011;59983;52.010;5.420;2022-09-09T10:53:46;7.57;;;4.10;;
72109;SDS011;59983;52.010;5.420;2022-09-09T10:56:22;6.13;;;3.60;;
72109;SDS011;59983;52.010;5.420;2022-09-09T11:01:32;8.02;;;3.85;;
72109;SDS011;59983;52.010;5.420;2022-09-09T11:04:19;7.23;;;3.30;;
72109;SDS011;59983;52.010;5.420;2022-09-09T11:06:56;5.32;;;3.28;;
72109;SDS011;59983;52.010;5.420;2022-09-09T11:09:32;9.52;;;3.85;;
72109;SDS011;59983;52.010;5.420;2022-09-09T11:12:09;8.18;;;3.67;;
72109;SDS011;59983;52.010;5.420;2022-09-09T11:20:16;3.75;;;3.28;;
72109;SDS011;59983;52.010;5.420;2022-09-09T11:22:48;3.35;;;2.83;;
72109;SDS011;59983;52.010;5.420;2022-09-09T11:25:29;3.28;;;2.80;;
72109;SDS011;59983;52.010;5.420;2022-09-09T11:35:58;8.23;;;2.88;;
72109;SDS011;59983;52.010;5.420;2022-09-09T11:41:05;5.93;;;2.88;;
72109;SDS011;59983;52.010;5.420;2022-09-09T11:46:32;8.10;;;2.80;;
72109;SDS011;59983;52.010;5.420;2022-09-09T11:49:03;6.38;;;3.38;;
72109;SDS011;59983;52.010;5.420;2022-09-09T11:51:32;13.07;;;3.05;;
72109;SDS011;59983;52.010;5.420;2022-09-09T11:54:24;6.05;;;3.17;;
72109;SDS011;59983;52.010;5.420;2022-09-09T11:56:55;5.33;;;2.73;;
72109;SDS011;59983;52.010;5.420;2022-09-09T11:59:32;3.33;;;2.78;;
72109;SDS011;59983;52.010;5.420;2022-09-09T12:02:00;11.02;;;3.17;;
72109;SDS011;59983;52.010;5.420;2022-09-09T12:09:43;5.37;;;3.03;;
72109;SDS011;59983;52.010;5.420;2022-09-09T12:17:23;5.50;;;3.90;;
72109;SDS011;59983;52.010;5.420;2022-09-09T12:20:54;5.88;;;4.28;;
72109;SDS011;59983;52.010;5.420;2022-09-09T12:23:10;6.50;;;3.90;;
72109;SDS011;59983;52.010;5.420;2022-09-09T12:28:22;4.35;;;2.95;;
72109;SDS011;59983;52.010;5.420;2022-09-09T12:31:10;10.32;;;3.45;;
72109;SDS011;59983;52.010;5.420;2022-09-09T12:33:45;5.88;;;3.55;;
72109;SDS011;59983;52.010;5.420;2022-09-09T12:36:15;3.40;;;2.87;;
72109;SDS011;59983;52.010;5.420;2022-09-09T12:38:45;3.97;;;3.10;;
72109;SDS011;59983;52.010;5.420;2022-09-09T12:41:18;6.03;;;3.28;;
72109;SDS011;59983;52.010;5.420;2022-09-09T12:43:49;3.35;;;2.83;;
72109;SDS011;59983;52.010;5.420;2022-09-09T12:46:39;5.85;;;2.90;;
72109;SDS011;59983;52.010;5.420;2022-09-09T12:49:31;4.10;;;2.60;;
72109;SDS011;59983;52.010;5.420;2022-09-09T12:52:04;5.82;;;2.53;;
72109;SDS011;59983;52.010;5.420;2022-09-09T12:54:36;3.70;;;3.00;;
72109;SDS011;59983;52.010;5.420;2022-09-09T12:57:04;9.50;;;2.72;;
72109;SDS011;59983;52.010;5.420;2022-09-09T12:59:41;6.22;;;3.17;;
72109;SDS011;59983;52.010;5.420;2022-09-09T13:02:19;3.37;;;3.07;;
72109;SDS011;59983;52.010;5.420;2022-09-09T13:04:51;5.85;;;3.03;;
72109;SDS011;59983;52.010;5.420;2022-09-09T13:07:18;5.45;;;3.03;;
72109;SDS011;59983;52.010;5.420;2022-09-09T13:09:46;4.82;;;3.10;;
72109;SDS011;59983;52.010;5.420;2022-09-09T13:12:21;5.50;;;3.05;;
72109;SDS011;59983;52.010;5.420;2022-09-09T13:14:52;2.90;;;2.60;;
72109;SDS011;59983;52.010;5.420;2022-09-09T13:17:23;4.88;;;3.50;;
72109;SDS011;59983;52.010;5.420;2022-09-09T13:19:51;4.68;;;3.30;;
72109;SDS011;59983;52.010;5.420;2022-09-09T13:25:00;5.70;;;3.42;;
72109;SDS011;59983;52.010;5.420;2022-09-09T13:27:34;6.93;;;3.47;;
72109;SDS011;59983;52.010;5.420;2022-09-09T13:30:19;6.70;;;4.03;;
72109;SDS011;59983;52.010;5.420;2022-09-09T13:35:31;9.18;;;3.60;;
72109;SDS011;59983;52.010;5.420;2022-09-09T13:37:59;4.45;;;3.10;;
72109;SDS011;59983;52.010;5.420;2022-09-09T13:40:34;4.10;;;3.00;;
72109;SDS011;59983;52.010;5.420;2022-09-09T13:43:03;3.15;;;2.95;;
72109;SDS011;59983;52.010;5.420;2022-09-09T13:45:29;4.38;;;3.20;;
72109;SDS011;59983;52.010;5.420;2022-09-09T13:47:56;4.75;;;3.05;;
72109;SDS011;59983;52.010;5.420;2022-09-09T13:50:26;4.30;;;2.90;;
72109;SDS011;59983;52.010;5.420;2022-09-09T13:52:56;5.43;;;2.93;;
72109;SDS011;59983;52.010;5.420;2022-09-09T13:55:26;3.25;;;3.00;;
72109;SDS011;59983;52.010;5.420;2022-09-09T13:57:55;4.65;;;3.05;;
72109;SDS011;59983;52.010;5.420;2022-09-09T14:00:29;5.68;;;3.10;;
72109;SDS011;59983;52.010;5.420;2022-09-09T14:02:57;3.97;;;3.08;;
72109;SDS011;59983;52.010;5.420;2022-09-09T14:05:23;8.77;;;2.80;;
72109;SDS011;59983;52.010;5.420;2022-09-09T14:07:51;3.65;;;3.22;;
72109;SDS011;59983;52.010;5.420;2022-09-09T14:10:18;3.78;;;2.83;;
72109;SDS011;59983;52.010;5.420;2022-09-09T14:12:45;3.30;;;3.00;;
72109;SDS011;59983;52.010;5.420;2022-09-09T14:15:12;5.03;;;2.50;;
72109;SDS011;59983;52.010;5.420;2022-09-09T14:17:40;3.03;;;2.47;;
72109;SDS011;59983;52.010;5.420;2022-09-09T14:20:07;5.40;;;2.63;;
72109;SDS011;59983;52.010;5.420;2022-09-09T14:22:35;2.70;;;2.10;;
72109;SDS011;59983;52.010;5.420;2022-09-09T14:25:02;3.10;;;2.47;;
72109;SDS011;59983;52.010;5.420;2022-09-09T14:27:29;2.60;;;2.40;;
72109;SDS011;59983;52.010;5.420;2022-09-09T14:29:56;2.70;;;2.50;;
72109;SDS011;59983;52.010;5.420;2022-09-09T14:32:23;2.90;;;2.13;;
72109;SDS011;59983;52.010;5.420;2022-09-09T14:34:50;4.03;;;2.53;;
72109;SDS011;59983;52.010;5.420;2022-09-09T14:37:17;4.70;;;2.63;;
72109;SDS011;59983;52.010;5.420;2022-09-09T14:39:44;2.78;;;2.30;;
72109;SDS011;59983;52.010;5.420;2022-09-09T14:42:13;2.50;;;2.23;;
72109;SDS011;59983;52.010;5.420;2022-09-09T14:44:41;3.55;;;2.22;;
72109;SDS011;59983;52.010;5.420;2022-09-09T14:47:07;2.92;;;2.10;;
72109;SDS011;59983;52.010;5.420;2022-09-09T14:49:35;2.60;;;2.30;;
72109;SDS011;59983;52.010;5.420;2022-09-09T14:52:01;3.22;;;2.58;;
72109;SDS011;59983;52.010;5.420;2022-09-09T14:54:28;2.87;;;1.90;;
72109;SDS011;59983;52.010;5.420;2022-09-09T14:56:55;2.78;;;1.95;;
72109;SDS011;59983;52.010;5.420;2022-09-09T14:59:23;4.70;;;2.35;;
72109;SDS011;59983;52.010;5.420;2022-09-09T15:01:49;5.43;;;2.35;;
72109;SDS011;59983;52.010;5.420;2022-09-09T15:04:16;3.28;;;1.85;;
72109;SDS011;59983;52.010;5.420;2022-09-09T15:06:43;2.57;;;1.70;;
72109;SDS011;59983;52.010;5.420;2022-09-09T15:09:13;3.20;;;1.60;;
72109;SDS011;59983;52.010;5.420;2022-09-09T15:11:40;7.20;;;1.60;;
72109;SDS011;59983;52.010;5.420;2022-09-09T15:14:07;3.30;;;1.80;;
72109;SDS011;59983;52.010;5.420;2022-09-09T15:16:35;2.42;;;2.13;;
72109;SDS011;59983;52.010;5.420;2022-09-09T15:19:02;4.00;;;1.60;;
72109;SDS011;59983;52.010;5.420;2022-09-09T15:21:32;2.50;;;2.05;;
72109;SDS011;59983;52.010;5.420;2022-09-09T15:24:00;3.33;;;2.03;;
72109;SDS011;59983;52.010;5.420;2022-09-09T15:26:27;3.83;;;2.22;;
72109;SDS011;59983;52.010;5.420;2022-09-09T15:28:53;2.75;;;2.55;;
72109;SDS011;59983;52.010;5.420;2022-09-09T15:31:21;2.50;;;1.97;;
72109;SDS011;59983;52.010;5.420;2022-09-09T15:33:53;2.20;;;1.80;;
72109;SDS011;59983;52.010;5.420;2022-09-09T15:36:36;1.73;;;1.63;;
72109;SDS011;59983;52.010;5.420;2022-09-09T15:39:05;1.58;;;1.48;;
72109;SDS011;59983;52.010;5.420;2022-09-09T15:41:33;2.45;;;1.63;;
72109;SDS011;59983;52.010;5.420;2022-09-09T15:44:00;1.80;;;1.70;;
72109;SDS011;59983;52.010;5.420;2022-09-09T15:48:55;3.28;;;1.92;;
72109;SDS011;59983;52.010;5.420;2022-09-09T15:51:28;1.80;;;1.70;;
72109;SDS011;59983;52.010;5.420;2022-09-09T15:54:08;2.42;;;2.22;;
72109;SDS011;59983;52.010;5.420;2022-09-09T15:56:36;1.90;;;1.80;;
72109;SDS011;59983;52.010;5.420;2022-09-09T15:59:02;3.67;;;2.45;;
72109;SDS011;59983;52.010;5.420;2022-09-09T16:01:30;2.50;;;1.85;;
72109;SDS011;59983;52.010;5.420;2022-09-09T16:03:58;2.10;;;2.00;;
72109;SDS011;59983;52.010;5.420;2022-09-09T16:06:27;2.30;;;2.10;;
72109;SDS011;59983;52.010;5.420;2022-09-09T16:08:55;2.30;;;2.13;;
72109;SDS011;59983;52.010;5.420;2022-09-09T16:11:33;3.05;;;2.10;;
72109;SDS011;59983;52.010;5.420;2022-09-09T16:14:02;2.50;;;2.30;;
72109;SDS011;59983;52.010;5.420;2022-09-09T16:16:30;3.78;;;2.22;;
72109;SDS011;59983;52.010;5.420;2022-09-09T16:18:58;4.18;;;2.20;;
72109;SDS011;59983;52.010;5.420;2022-09-09T16:21:27;4.33;;;2.20;;
72109;SDS011;59983;52.010;5.420;2022-09-09T16:23:59;3.92;;;2.15;;
72109;SDS011;59983;52.010;5.420;2022-09-09T16:26:29;2.28;;;2.08;;
72109;SDS011;59983;52.010;5.420;2022-09-09T16:28:57;4.20;;;3.25;;
72109;SDS011;59983;52.010;5.420;2022-09-09T16:31:25;3.40;;;2.60;;
72109;SDS011;59983;52.010;5.420;2022-09-09T16:33:53;3.00;;;2.40;;
72109;SDS011;59983;52.010;5.420;2022-09-09T16:36:21;3.30;;;2.70;;
72109;SDS011;59983;52.010;5.420;2022-09-09T16:38:52;3.45;;;3.15;;
72109;SDS011;59983;52.010;5.420;2022-09-09T16:41:21;3.42;;;2.70;;
72109;SDS011;59983;52.010;5.420;2022-09-09T16:43:51;3.00;;;2.78;;
72109;SDS011;59983;52.010;5.420;2022-09-09T16:46:22;3.60;;;3.30;;
72109;SDS011;59983;52.010;5.420;2022-09-09T16:48:50;3.42;;;3.15;;
72109;SDS011;59983;52.010;5.420;2022-09-09T16:51:20;3.10;;;2.90;;
72109;SDS011;59983;52.010;5.420;2022-09-09T16:53:51;3.70;;;3.22;;
72109;SDS011;59983;52.010;5.420;2022-09-09T16:56:20;4.30;;;3.00;;
72109;SDS011;59983;52.010;5.420;2022-09-09T16:58:49;4.00;;;2.97;;
72109;SDS011;59983;52.010;5.420;2022-09-09T17:01:17;5.70;;;3.25;;
72109;SDS011;59983;52.010;5.420;2022-09-09T17:03:43;3.60;;;3.30;;
72109;SDS011;59983;52.010;5.420;2022-09-09T17:06:10;5.43;;;2.78;;
72109;SDS011;59983;52.010;5.420;2022-09-09T17:08:39;3.50;;;3.20;;
72109;SDS011;59983;52.010;5.420;2022-09-09T17:11:17;3.47;;;3.27;;
72109;SDS011;59983;52.010;5.420;2022-09-09T17:13:47;4.10;;;3.03;;
72109;SDS011;59983;52.010;5.420;2022-09-09T17:16:15;3.42;;;3.08;;
72109;SDS011;59983;52.010;5.420;2022-09-09T17:18:43;4.20;;;2.65;;
72109;SDS011;59983;52.010;5.420;2022-09-09T17:21:11;5.18;;;2.97;;
72109;SDS011;59983;52.010;5.420;2022-09-09T17:23:40;7.13;;;3.07;;
72109;SDS011;59983;52.010;5.420;2022-09-09T17:26:08;4.75;;;2.97;;
72109;SDS011;59983;52.010;5.420;2022-09-09T17:28:36;3.75;;;2.95;;
72109;SDS011;59983;52.010;5.420;2022-09-09T17:31:05;4.15;;;3.28;;
72109;SDS011;59983;52.010;5.420;2022-09-09T17:33:34;3.58;;;3.38;;